X  Schließen METAR Luftfahrt Wetterdaten     EDTY Adolf Würth Airport
Temperatur
11°C Temperatur
10°C Taupunkt
94% Feuchtigkeit



Wind
16 km/h
10 MPS
4 m/s
9 kts



240°
WSW
Aktuelle Wetterlage

Leicht  Regen Leicht Regen
Luftdruck 1009.82 (hPa) - 29.82 (inHg)
Sichtweite 5 (Meile) - 8 (km)
Flughafen
Flughafen Code EDTY

Position : Adolf Würth Airport
Entfernung: 21 (km)

Metar:
EDTY 180550Z 24009KT 8000 -RA OVC010 11/10 Q1010

Zeit: 18-05-2024 05:50 CEST